createdAt,value
2022-08-12T00:00:44.877Z,2.22
2022-08-12T00:02:07.306Z,1.48
2022-08-12T00:03:28.639Z,2.03
2022-08-12T00:04:49.682Z,1.88
2022-08-12T00:06:17.902Z,1.40
2022-08-12T00:07:39.766Z,2.00
2022-08-12T00:09:01.065Z,1.65
2022-08-12T00:10:22.396Z,1.20
2022-08-12T00:11:50.875Z,2.25
2022-08-12T00:13:12.597Z,2.25
2022-08-12T00:14:33.939Z,1.98
2022-08-12T00:16:22.904Z,2.00
2022-08-12T00:17:51.889Z,1.58
2022-08-12T00:19:13.038Z,2.30
2022-08-12T00:20:34.321Z,1.63
2022-08-12T00:21:56.385Z,2.45
2022-08-12T00:23:23.898Z,2.45
2022-08-12T00:24:45.669Z,2.42
2022-08-12T00:26:23.575Z,2.72
2022-08-12T00:27:51.921Z,3.00
2022-08-12T00:29:13.690Z,1.77
2022-08-12T00:30:35.055Z,2.30
2022-08-12T00:31:56.493Z,1.38
2022-08-12T00:33:26.969Z,2.67
2022-08-12T00:34:57.287Z,1.52
2022-08-12T00:36:35.288Z,1.45
2022-08-12T00:37:57.177Z,1.50
2022-08-12T00:39:24.964Z,2.45
2022-08-12T00:40:46.716Z,2.00
2022-08-12T00:42:09.226Z,2.08
2022-08-12T00:43:15.578Z,1.48
2022-08-12T00:44:26.890Z,2.63
2022-08-12T00:45:58.913Z,1.73
2022-08-12T00:47:02.143Z,2.67
2022-08-12T00:48:07.178Z,2.15
2022-08-12T00:49:09.781Z,1.63
2022-08-12T00:50:18.662Z,2.50
2022-08-12T00:51:27.894Z,1.63
2022-08-12T00:52:32.324Z,1.70
2022-08-12T00:53:35.226Z,1.60
2022-08-12T00:54:40.095Z,1.70
2022-08-12T00:55:46.002Z,1.75
2022-08-12T00:56:57.953Z,1.90
2022-08-12T00:58:01.989Z,1.58
2022-08-12T00:59:05.619Z,2.00
2022-08-12T01:00:09.594Z,1.65
2022-08-12T01:01:13.072Z,2.40
2022-08-12T01:02:23.945Z,2.67
2022-08-12T01:03:51.708Z,1.30
2022-08-12T01:05:14.089Z,2.70
2022-08-12T01:06:37.070Z,1.90
2022-08-12T01:08:05.919Z,1.83
2022-08-12T01:09:27.851Z,1.92
2022-08-12T01:10:49.767Z,1.73
2022-08-12T01:11:53.749Z,1.50
2022-08-12T01:13:07.575Z,1.80
2022-08-12T01:14:27.915Z,1.88
2022-08-12T01:15:33.221Z,1.75
2022-08-12T01:16:49.900Z,1.42
2022-08-12T01:18:00.169Z,1.40
2022-08-12T01:19:12.904Z,1.40
2022-08-12T01:20:21.257Z,2.25
2022-08-12T01:21:36.000Z,1.48
2022-08-12T01:22:41.549Z,1.88
2022-08-12T01:24:29.465Z,1.73
2022-08-12T01:25:31.552Z,1.85
2022-08-12T01:26:35.102Z,1.40
2022-08-12T01:27:40.561Z,1.83
2022-08-12T01:28:50.952Z,1.25
2022-08-12T01:29:55.591Z,1.70
2022-08-12T01:31:01.641Z,2.00
2022-08-12T01:32:08.622Z,2.05
2022-08-12T01:33:15.409Z,1.15
2022-08-12T01:34:36.498Z,2.60
2022-08-12T01:35:41.574Z,1.83
2022-08-12T01:36:47.903Z,2.15
2022-08-12T01:38:03.909Z,1.50
2022-08-12T01:39:06.655Z,2.05
2022-08-12T01:40:34.258Z,1.73
2022-08-12T01:41:53.864Z,1.55
2022-08-12T01:42:58.712Z,1.63
2022-08-12T01:44:03.102Z,1.05
2022-08-12T01:45:12.955Z,1.25
2022-08-12T01:46:22.644Z,2.17
2022-08-12T01:47:30.469Z,1.38
2022-08-12T01:48:41.027Z,1.40
2022-08-12T01:49:48.523Z,1.38
2022-08-12T01:51:06.723Z,2.58
2022-08-12T01:52:25.903Z,2.75
2022-08-12T01:53:50.192Z,1.45
2022-08-12T01:54:58.668Z,1.25
2022-08-12T01:56:01.721Z,1.63
2022-08-12T01:57:58.948Z,1.20
2022-08-12T01:58:58.336Z,0.80
2022-08-12T02:00:04.968Z,1.65
2022-08-12T02:01:09.838Z,1.42
2022-08-12T02:02:22.958Z,1.25
2022-08-12T02:04:04.029Z,0.77
2022-08-12T02:05:44.689Z,1.15
2022-08-12T02:07:11.811Z,2.05
2022-08-12T02:08:42.971Z,1.73
2022-08-12T02:10:09.447Z,1.42
2022-08-12T02:11:34.833Z,0.93
2022-08-12T02:12:48.473Z,1.20
2022-08-12T02:14:09.970Z,1.92
2022-08-12T02:15:21.391Z,2.53
2022-08-12T02:16:36.423Z,2.42
2022-08-12T02:17:59.891Z,1.52
2022-08-12T02:19:21.903Z,1.33
2022-08-12T02:20:51.672Z,1.02
2022-08-12T02:22:01.609Z,1.50
2022-08-12T02:23:08.499Z,1.60
2022-08-12T02:24:15.122Z,1.40
2022-08-12T02:25:26.920Z,1.17
2022-08-12T02:26:32.385Z,2.33
2022-08-12T02:27:36.148Z,1.27
2022-08-12T02:28:42.017Z,1.10
2022-08-12T02:29:45.217Z,1.95
2022-08-12T02:30:54.938Z,2.55
2022-08-12T02:31:59.275Z,1.65
2022-08-12T02:33:04.618Z,1.67
2022-08-12T02:34:08.131Z,1.98
2022-08-12T02:35:16.457Z,1.60
2022-08-12T02:36:25.927Z,1.73
2022-08-12T02:37:31.455Z,1.60
2022-08-12T02:38:34.551Z,1.20
2022-08-12T02:39:39.120Z,1.48
2022-08-12T02:40:43.099Z,1.83
2022-08-12T02:41:58.224Z,1.17
2022-08-12T02:43:03.847Z,0.73
2022-08-12T02:44:10.303Z,1.00
2022-08-12T02:45:12.928Z,1.17
2022-08-12T02:46:18.095Z,1.75
2022-08-12T02:47:59.359Z,0.80
2022-08-12T02:48:52.999Z,0.98
2022-08-12T02:49:58.084Z,1.73
2022-08-12T02:51:05.406Z,2.10
2022-08-12T02:52:08.062Z,1.55
2022-08-12T02:53:18.944Z,1.73
2022-08-12T02:54:22.936Z,1.35
2022-08-12T02:55:35.012Z,2.35
2022-08-12T02:56:40.710Z,2.05
2022-08-12T02:57:50.926Z,2.80
2022-08-12T02:59:00.942Z,1.27
2022-08-12T03:00:07.458Z,1.58
2022-08-12T03:01:11.260Z,1.65
2022-08-12T03:02:15.622Z,1.60
2022-08-12T03:03:21.136Z,3.05
2022-08-12T03:04:32.968Z,1.13
2022-08-12T03:05:44.037Z,1.75
2022-08-12T03:06:49.450Z,1.15
2022-08-12T03:07:56.536Z,2.63
2022-08-12T03:09:05.481Z,1.83
2022-08-12T03:10:23.066Z,1.35
2022-08-12T03:11:42.793Z,1.88
2022-08-12T03:12:53.746Z,2.00
2022-08-12T03:14:00.029Z,2.15
2022-08-12T03:15:06.795Z,1.52
2022-08-12T03:16:16.942Z,1.88
2022-08-12T03:17:29.150Z,1.80
2022-08-12T03:18:33.354Z,2.33
2022-08-12T03:19:36.977Z,1.75
2022-08-12T03:21:00.964Z,1.95
2022-08-12T03:22:19.919Z,1.98
2022-08-12T03:23:28.958Z,2.33
2022-08-12T03:24:32.513Z,1.83
2022-08-12T03:25:38.622Z,2.00
2022-08-12T03:26:48.943Z,1.77
2022-08-12T03:27:56.018Z,1.38
2022-08-12T03:28:58.691Z,1.65
2022-08-12T03:30:02.299Z,2.25
2022-08-12T03:31:13.946Z,2.78
2022-08-12T03:32:35.161Z,1.20
2022-08-12T03:34:01.626Z,1.85
2022-08-12T03:35:08.594Z,1.05
2022-08-12T03:36:33.501Z,1.90
2022-08-12T03:37:44.917Z,1.80
2022-08-12T03:39:08.066Z,0.82
2022-08-12T03:40:31.991Z,0.68
2022-08-12T03:41:35.530Z,1.75
2022-08-12T03:42:46.960Z,2.10
2022-08-12T03:44:21.946Z,1.83
2022-08-12T03:45:52.075Z,0.80
2022-08-12T03:47:26.946Z,2.03
2022-08-12T03:48:48.781Z,1.67
2022-08-12T03:50:16.935Z,1.88
2022-08-12T03:51:38.091Z,0.80
2022-08-12T03:53:06.008Z,2.35
2022-08-12T03:54:27.130Z,1.27
2022-08-12T03:55:48.378Z,1.48
2022-08-12T03:57:09.798Z,1.65
2022-08-12T03:58:37.988Z,1.48
2022-08-12T03:59:59.120Z,1.55
2022-08-12T04:01:02.801Z,1.45
2022-08-12T04:02:08.142Z,2.15
2022-08-12T04:03:25.556Z,2.03
2022-08-12T04:04:40.966Z,1.08
2022-08-12T04:05:55.592Z,1.40
2022-08-12T04:07:00.088Z,1.60
2022-08-12T04:08:03.548Z,2.00
2022-08-12T04:09:15.855Z,1.77
2022-08-12T04:10:20.096Z,1.45
2022-08-12T04:11:45.646Z,1.75
2022-08-12T04:13:15.351Z,1.17
2022-08-12T04:14:26.943Z,2.28
2022-08-12T04:15:30.760Z,0.93
2022-08-12T04:16:55.936Z,0.95
2022-08-12T04:18:07.414Z,1.33
2022-08-12T04:19:20.009Z,1.70
2022-08-12T04:20:23.130Z,1.75
2022-08-12T04:21:26.672Z,2.20
2022-08-12T04:22:30.955Z,1.70
2022-08-12T04:23:34.976Z,2.45
2022-08-12T04:24:48.828Z,2.88
2022-08-12T04:25:53.310Z,1.30
2022-08-12T04:26:56.871Z,1.20
2022-08-12T04:28:13.139Z,1.63
2022-08-12T04:30:30.734Z,2.03
2022-08-12T04:30:52.961Z,1.58
2022-08-12T04:31:57.003Z,1.17
2022-08-12T04:33:00.884Z,1.55
2022-08-12T04:34:07.259Z,1.80
2022-08-12T04:35:17.011Z,1.58
2022-08-12T04:36:20.469Z,2.58
2022-08-12T04:37:23.459Z,2.65
2022-08-12T04:38:27.380Z,1.77
2022-08-12T04:39:29.969Z,0.80
2022-08-12T04:40:40.959Z,1.98
2022-08-12T04:41:58.079Z,2.83
2022-08-12T04:44:01.629Z,2.30
2022-08-12T04:44:32.498Z,1.95
2022-08-12T04:45:38.943Z,2.35
2022-08-12T04:46:41.461Z,1.77
2022-08-12T04:47:45.097Z,1.52
2022-08-12T04:48:55.951Z,2.95
2022-08-12T04:50:34.802Z,1.47
2022-08-12T04:51:34.963Z,1.35
2022-08-12T04:52:38.481Z,1.45
2022-08-12T04:53:41.282Z,2.00
2022-08-12T04:54:44.885Z,2.13
2022-08-12T04:55:47.669Z,2.33
2022-08-12T04:57:03.925Z,2.55
2022-08-12T04:58:07.756Z,2.78
2022-08-12T04:59:12.175Z,2.27
2022-08-12T05:00:16.179Z,2.03
2022-08-12T05:01:27.018Z,2.87
2022-08-12T05:02:30.538Z,1.17
2022-08-12T05:03:46.093Z,1.47
2022-08-12T05:04:53.025Z,1.93
2022-08-12T05:05:56.747Z,1.40
2022-08-12T05:07:06.980Z,1.90
2022-08-12T05:08:12.973Z,2.03
2022-08-12T05:09:15.890Z,1.83
2022-08-12T05:10:33.938Z,2.03
2022-08-12T05:11:53.953Z,1.80
2022-08-12T05:12:58.740Z,0.97
2022-08-12T05:14:02.697Z,1.87
2022-08-12T05:15:18.965Z,2.17
2022-08-12T05:16:48.984Z,1.23
2022-08-12T05:17:52.597Z,1.60
2022-08-12T05:18:56.144Z,2.47
2022-08-12T05:20:06.967Z,2.30
2022-08-12T05:21:13.051Z,2.07
2022-08-12T05:22:15.596Z,1.20
2022-08-12T05:23:20.406Z,1.77
2022-08-12T05:24:29.965Z,1.27
2022-08-12T05:25:32.515Z,1.40
2022-08-12T05:26:42.988Z,1.80
2022-08-12T05:27:58.703Z,1.90
2022-08-12T05:30:07.559Z,1.97
2022-08-12T05:30:33.489Z,1.60
2022-08-12T05:31:47.304Z,1.17
2022-08-12T05:32:51.019Z,2.07
2022-08-12T05:34:03.984Z,2.03
2022-08-12T05:35:08.244Z,1.30
2022-08-12T05:36:13.985Z,1.27
2022-08-12T05:37:16.678Z,1.97
2022-08-12T05:38:38.420Z,1.03
2022-08-12T05:39:49.066Z,1.87
2022-08-12T05:40:52.021Z,1.50
2022-08-12T05:42:01.988Z,1.30
2022-08-12T05:43:05.783Z,1.10
2022-08-12T05:44:16.999Z,1.10
2022-08-12T05:45:19.538Z,1.23
2022-08-12T05:46:23.704Z,0.90
2022-08-12T05:47:38.516Z,1.10
2022-08-12T05:49:03.009Z,1.23
2022-08-12T05:50:05.829Z,1.57
2022-08-12T05:51:11.159Z,1.30
2022-08-12T05:52:14.818Z,1.80
2022-08-12T05:53:17.422Z,1.57
2022-08-12T05:54:47.600Z,1.20
2022-08-12T05:55:53.250Z,1.27
2022-08-12T05:56:57.014Z,1.03
2022-08-12T05:58:01.003Z,1.07
2022-08-12T05:59:12.985Z,1.47
2022-08-12T06:00:16.650Z,1.40
2022-08-12T06:02:10.885Z,1.60
2022-08-12T06:02:43.795Z,1.90
2022-08-12T06:03:47.447Z,1.27
2022-08-12T06:04:57.094Z,1.43
2022-08-12T06:06:00.572Z,1.47
2022-08-12T06:07:59.650Z,1.33
2022-08-12T06:08:30.236Z,1.67
2022-08-12T06:09:33.661Z,1.67
2022-08-12T06:10:44.083Z,1.37
2022-08-12T06:11:54.000Z,1.13
2022-08-12T06:13:09.310Z,1.23
2022-08-12T06:14:12.809Z,0.73
2022-08-12T06:15:15.360Z,1.60
2022-08-12T06:16:26.055Z,1.20
2022-08-12T06:17:43.152Z,1.27
2022-08-12T06:18:46.304Z,1.37
2022-08-12T06:20:27.659Z,2.20
2022-08-12T06:21:13.510Z,1.37
2022-08-12T06:22:25.017Z,1.53
2022-08-12T06:23:28.653Z,1.00
2022-08-12T06:24:40.041Z,1.47
2022-08-12T06:25:43.582Z,0.80
2022-08-12T06:26:54.005Z,0.93
2022-08-12T06:28:06.517Z,1.27
2022-08-12T06:30:08.821Z,2.00
2022-08-12T06:31:02.703Z,1.17
2022-08-12T06:32:10.269Z,1.10
2022-08-12T06:33:22.815Z,1.10
2022-08-12T06:35:23.226Z,1.23
2022-08-12T06:36:06.837Z,0.93
2022-08-12T06:37:11.421Z,0.50
2022-08-12T06:38:20.235Z,0.63
2022-08-12T06:39:24.248Z,0.67
2022-08-12T06:40:52.087Z,1.33
2022-08-12T06:42:32.197Z,0.70
2022-08-12T06:44:07.044Z,1.17
2022-08-12T06:45:01.075Z,1.00
2022-08-12T06:46:12.050Z,0.90
2022-08-12T06:47:18.573Z,0.93
2022-08-12T06:48:21.140Z,1.00
2022-08-12T06:49:24.651Z,0.50
2022-08-12T06:50:27.783Z,0.77
2022-08-12T06:51:41.000Z,0.63
2022-08-12T06:52:43.729Z,0.60
2022-08-12T06:53:48.585Z,1.23
2022-08-12T06:54:53.557Z,0.97
2022-08-12T06:55:58.431Z,0.93
2022-08-12T06:57:59.777Z,0.90
2022-08-12T06:58:37.390Z,0.97
2022-08-12T06:59:48.010Z,0.50
2022-08-12T07:00:51.535Z,0.87
2022-08-12T07:01:55.033Z,0.80
2022-08-12T07:02:58.999Z,0.77
2022-08-12T07:05:50.834Z,0.80
2022-08-12T07:07:02.049Z,0.33
2022-08-12T07:08:10.232Z,0.73
2022-08-12T07:10:06.818Z,0.70
2022-08-12T07:10:51.065Z,0.80
2022-08-12T07:11:54.521Z,1.43
2022-08-12T07:12:57.089Z,0.80
2022-08-12T07:14:11.706Z,0.87
2022-08-12T07:15:18.630Z,0.70
2022-08-12T07:16:29.010Z,0.60
2022-08-12T07:17:54.010Z,0.80
2022-08-12T07:18:59.019Z,0.83
2022-08-12T07:20:04.718Z,0.63
2022-08-12T07:21:09.188Z,0.50
2022-08-12T07:22:14.116Z,0.90
2022-08-12T07:23:25.040Z,0.47
2022-08-12T07:24:28.833Z,0.67
2022-08-12T07:25:37.615Z,1.33
2022-08-12T07:26:44.780Z,1.07
2022-08-12T07:27:47.794Z,0.73
2022-08-12T07:28:58.031Z,1.10
2022-08-12T07:30:04.713Z,0.50
2022-08-12T07:31:10.054Z,0.77
2022-08-12T07:32:12.554Z,0.50
2022-08-12T07:33:16.926Z,0.57
2022-08-12T07:34:26.062Z,0.60
2022-08-12T07:35:30.019Z,0.60
2022-08-12T07:36:33.797Z,0.60
2022-08-12T07:37:41.729Z,1.17
2022-08-12T07:38:54.032Z,0.80
2022-08-12T07:40:02.610Z,0.60
2022-08-12T07:41:15.632Z,1.10
2022-08-12T07:42:18.571Z,0.67
2022-08-12T07:43:22.052Z,0.77
2022-08-12T07:44:32.036Z,0.50
2022-08-12T07:45:41.077Z,0.60
2022-08-12T07:46:45.439Z,0.83
2022-08-12T07:47:48.651Z,0.70
2022-08-12T07:48:53.131Z,1.23
2022-08-12T07:50:04.589Z,0.70
2022-08-12T07:51:24.699Z,0.70
2022-08-12T07:52:35.082Z,0.50
2022-08-12T07:53:53.859Z,0.50
2022-08-12T07:55:10.044Z,0.77
2022-08-12T07:56:13.554Z,0.73
2022-08-12T07:57:23.038Z,0.67
2022-08-12T07:58:26.555Z,0.80
2022-08-12T07:59:37.195Z,0.53
2022-08-12T08:00:41.469Z,0.50
2022-08-12T08:01:51.156Z,0.73
2022-08-12T08:02:55.086Z,0.50
2022-08-12T08:04:19.348Z,0.50
2022-08-12T08:05:24.107Z,0.70
2022-08-12T08:06:27.206Z,0.47
2022-08-12T08:07:39.048Z,0.80
2022-08-12T08:08:42.877Z,0.53
2022-08-12T08:09:58.687Z,0.90
2022-08-12T08:11:21.890Z,0.97
2022-08-12T08:12:43.053Z,0.63
2022-08-12T08:13:48.943Z,0.50
2022-08-12T08:14:59.175Z,0.40
2022-08-12T08:16:05.772Z,0.40
2022-08-12T08:17:20.997Z,0.67
2022-08-12T08:18:31.325Z,0.97
2022-08-12T08:20:03.057Z,0.70
2022-08-12T08:21:05.111Z,0.47
2022-08-12T08:22:08.150Z,0.60
2022-08-12T08:23:19.181Z,0.45
2022-08-12T08:24:24.475Z,0.20
2022-08-12T08:25:35.947Z,0.43
2022-08-12T08:26:48.029Z,0.40
2022-08-12T08:27:58.031Z,0.43
2022-08-12T08:29:01.441Z,0.55
2022-08-12T08:30:04.130Z,1.23
2022-08-12T08:31:13.999Z,0.60
2022-08-12T08:32:16.444Z,0.30
2022-08-12T08:34:09.533Z,0.45
2022-08-12T08:34:54.572Z,0.30
2022-08-12T08:35:58.127Z,0.40
2022-08-12T08:37:00.565Z,0.43
2022-08-12T08:38:08.770Z,0.63
2022-08-12T08:39:23.062Z,0.60
2022-08-12T08:40:44.262Z,0.68
2022-08-12T08:42:18.672Z,0.45
2022-08-12T08:43:44.667Z,0.52
2022-08-12T08:44:50.362Z,0.80
2022-08-12T08:46:02.071Z,0.52
2022-08-12T08:47:05.698Z,0.85
2022-08-12T08:48:15.209Z,0.50
2022-08-12T08:49:19.338Z,0.50
2022-08-12T08:50:22.230Z,0.60
2022-08-12T08:51:26.255Z,0.60
2022-08-12T08:52:39.047Z,0.50
2022-08-12T08:53:44.760Z,0.43
2022-08-12T08:54:55.414Z,0.50
2022-08-12T08:56:05.008Z,0.73
2022-08-12T08:57:09.384Z,0.60
2022-08-12T08:58:20.228Z,0.47
2022-08-12T08:59:29.423Z,0.63
2022-08-12T09:00:33.175Z,0.85
2022-08-12T09:01:37.785Z,0.52
2022-08-12T09:02:42.073Z,0.82
2022-08-12T09:05:08.069Z,0.80
2022-08-12T09:05:25.763Z,0.70
2022-08-12T09:08:08.872Z,1.02
2022-08-12T09:09:17.811Z,1.17
2022-08-12T09:10:30.718Z,0.93
2022-08-12T09:12:14.048Z,0.80
2022-08-12T09:14:58.516Z,0.85
2022-08-12T09:16:12.311Z,0.80
2022-08-12T09:17:42.166Z,0.50
2022-08-12T09:18:46.871Z,1.00
2022-08-12T09:19:55.188Z,0.70
2022-08-12T09:21:07.117Z,0.90
2022-08-12T09:22:18.361Z,0.85
2022-08-12T09:24:00.077Z,0.90
2022-08-12T09:24:44.809Z,0.80
2022-08-12T09:25:49.742Z,0.80
2022-08-12T09:27:00.094Z,0.70
2022-08-12T09:28:05.959Z,0.75
2022-08-12T09:29:15.631Z,0.70
2022-08-12T09:30:18.634Z,0.82
2022-08-12T09:32:05.852Z,0.93
2022-08-12T09:33:15.265Z,0.50
2022-08-12T09:34:42.007Z,0.63
2022-08-12T09:35:46.198Z,0.77
2022-08-12T09:37:00.376Z,0.60
2022-08-12T09:38:05.307Z,1.67
2022-08-12T09:40:01.921Z,0.45
2022-08-12T09:41:01.280Z,0.50
2022-08-12T09:42:52.979Z,0.70
2022-08-12T09:44:38.932Z,0.32
2022-08-12T09:46:06.558Z,0.65
2022-08-12T09:47:11.487Z,0.40
2022-08-12T09:48:26.090Z,0.40
2022-08-12T09:49:42.555Z,0.50
2022-08-12T09:50:50.702Z,0.32
2022-08-12T09:51:55.800Z,0.70
2022-08-12T09:53:15.359Z,0.50
2022-08-12T09:54:34.250Z,0.55
2022-08-12T09:56:06.508Z,0.43
2022-08-12T09:58:46.900Z,0.93
2022-08-12T09:58:58.445Z,0.40
2022-08-12T10:00:15.277Z,0.60
2022-08-12T10:01:23.181Z,0.40
2022-08-12T10:02:53.157Z,0.50
2022-08-12T10:04:04.368Z,0.22
2022-08-12T10:05:13.931Z,0.50
2022-08-12T10:06:31.858Z,0.57
2022-08-12T10:07:40.672Z,0.60
2022-08-12T10:08:44.984Z,0.85
2022-08-12T10:10:01.189Z,1.13
2022-08-12T10:11:24.081Z,0.35
2022-08-12T10:13:09.741Z,0.40
2022-08-12T10:14:13.306Z,0.50
2022-08-12T10:16:02.255Z,0.40
2022-08-12T10:17:09.409Z,0.57
2022-08-12T10:18:15.038Z,0.52
2022-08-12T10:19:21.187Z,0.25
2022-08-12T10:20:46.151Z,0.55
2022-08-12T10:21:56.592Z,0.40
2022-08-12T10:23:01.693Z,0.70
2022-08-12T10:24:06.099Z,0.40
2022-08-12T10:26:35.368Z,0.73
2022-08-12T10:27:15.829Z,0.60
2022-08-12T10:28:38.377Z,0.47
2022-08-12T10:30:38.641Z,0.50
2022-08-12T10:31:16.602Z,0.40
2022-08-12T10:32:45.240Z,0.60
2022-08-12T10:33:54.940Z,0.65
2022-08-12T10:35:10.413Z,0.50
2022-08-12T10:36:13.277Z,0.90
2022-08-12T10:37:22.969Z,0.70
2022-08-12T10:38:47.129Z,0.40
2022-08-12T10:40:01.942Z,0.40
2022-08-12T10:41:58.358Z,0.73
2022-08-12T10:43:16.912Z,0.50
2022-08-12T10:44:20.687Z,0.30
2022-08-12T10:45:33.111Z,0.98
2022-08-12T10:46:42.469Z,0.50
2022-08-12T10:48:14.949Z,0.30
2022-08-12T10:50:02.279Z,0.30
2022-08-12T10:51:02.021Z,0.45
2022-08-12T10:52:34.939Z,0.30
2022-08-12T10:53:45.044Z,0.50
2022-08-12T10:54:50.997Z,0.30
2022-08-12T10:56:02.188Z,0.40
2022-08-12T10:57:06.565Z,0.40
2022-08-12T10:58:14.397Z,0.52
2022-08-12T11:00:30.399Z,0.40
2022-08-12T11:01:49.716Z,0.30
2022-08-12T11:04:20.890Z,0.60
2022-08-12T11:04:26.952Z,0.50
2022-08-12T11:07:06.337Z,0.40
2022-08-12T11:07:09.743Z,0.75
2022-08-12T11:08:35.016Z,0.45
2022-08-12T11:09:41.460Z,0.30
2022-08-12T11:10:59.156Z,0.38
2022-08-12T11:12:36.915Z,0.60
2022-08-12T11:13:46.059Z,0.40
2022-08-12T11:14:53.544Z,0.30
2022-08-12T11:16:22.227Z,0.28
2022-08-12T11:17:52.964Z,0.70
2022-08-12T11:18:59.377Z,0.40
2022-08-12T11:20:15.078Z,0.47
2022-08-12T11:21:17.990Z,0.30
2022-08-12T11:22:24.167Z,0.52
2022-08-12T11:23:36.861Z,0.47
2022-08-12T11:24:51.746Z,0.30
2022-08-12T11:26:00.442Z,0.40
2022-08-12T11:27:11.530Z,0.45
2022-08-12T11:28:15.030Z,0.47
2022-08-12T11:29:26.234Z,0.68
2022-08-12T11:30:30.518Z,0.40
2022-08-12T11:31:56.310Z,0.50
2022-08-12T11:32:59.057Z,0.20
2022-08-12T11:34:51.339Z,1.20
2022-08-12T11:35:35.718Z,0.28
2022-08-12T11:36:41.071Z,0.30
2022-08-12T11:37:58.823Z,0.35
2022-08-12T11:39:05.195Z,0.40
2022-08-12T11:41:31.380Z,0.40
2022-08-12T11:42:35.322Z,0.45
2022-08-12T11:43:50.588Z,0.40
2022-08-12T11:45:01.962Z,0.30
2022-08-12T11:46:04.569Z,0.77
2022-08-12T11:47:14.139Z,0.47
2022-08-12T11:48:18.650Z,0.40
2022-08-12T11:49:31.602Z,0.30
2022-08-12T11:50:35.108Z,0.60
2022-08-12T11:51:45.651Z,0.52
2022-08-12T11:53:58.917Z,0.35
2022-08-12T11:54:31.958Z,0.50
2022-08-12T11:55:36.148Z,0.40
2022-08-12T11:56:52.343Z,0.80
2022-08-12T11:59:11.307Z,0.45
2022-08-12T12:02:27.201Z,0.52
2022-08-12T12:03:43.683Z,0.35
2022-08-12T12:04:52.596Z,0.68
2022-08-12T12:05:55.845Z,0.43
2022-08-12T12:07:07.029Z,0.60
2022-08-12T12:08:41.351Z,0.60
2022-08-12T12:09:53.128Z,0.50
2022-08-12T12:10:57.392Z,0.43
2022-08-12T12:12:04.326Z,0.63
2022-08-12T12:13:23.200Z,0.85
2022-08-12T12:14:46.154Z,0.50
2022-08-12T12:15:58.591Z,0.65
2022-08-12T12:17:23.155Z,0.40
2022-08-12T12:18:30.706Z,0.32
2022-08-12T12:19:46.416Z,0.30
2022-08-12T12:20:51.607Z,0.50
2022-08-12T12:21:54.141Z,0.30
2022-08-12T12:22:57.935Z,0.28
2022-08-12T12:24:07.473Z,0.25
2022-08-12T12:25:19.752Z,0.47
2022-08-12T12:26:34.821Z,0.60
2022-08-12T12:28:04.775Z,0.68
2022-08-12T12:30:18.573Z,0.20
2022-08-12T12:30:38.163Z,0.40
2022-08-12T12:32:11.125Z,0.60
2022-08-12T12:33:05.843Z,0.30
2022-08-12T12:34:08.388Z,0.50
2022-08-12T12:35:18.200Z,0.50
2022-08-12T12:36:43.179Z,0.60
2022-08-12T12:38:03.590Z,0.50
2022-08-12T12:39:10.453Z,0.30
2022-08-12T12:40:14.837Z,0.82
2022-08-12T12:42:43.853Z,0.40
2022-08-12T12:42:58.846Z,0.40
2022-08-12T12:44:06.612Z,0.47
2022-08-12T12:45:19.372Z,0.35
2022-08-12T12:46:23.287Z,0.70
2022-08-12T12:47:29.250Z,0.63
2022-08-12T12:48:44.287Z,0.20
2022-08-12T12:49:47.271Z,0.40
2022-08-12T12:51:14.755Z,0.52
2022-08-12T12:52:46.192Z,0.50
2022-08-12T12:54:07.489Z,0.60
2022-08-12T12:55:14.355Z,0.60
2022-08-12T12:56:34.050Z,0.80
2022-08-12T12:58:00.437Z,0.90
2022-08-12T12:59:54.394Z,1.00
2022-08-12T13:00:33.984Z,0.50
2022-08-12T13:01:42.069Z,0.65
2022-08-12T13:02:52.903Z,0.85
2022-08-12T13:04:05.185Z,0.80
2022-08-12T13:05:14.207Z,0.80
2022-08-12T13:06:19.126Z,0.52
2022-08-12T13:07:23.744Z,0.50
2022-08-12T13:08:48.495Z,0.38
2022-08-12T13:09:57.214Z,0.40
2022-08-12T13:11:06.804Z,0.43
2022-08-12T13:12:10.885Z,0.40
2022-08-12T13:14:09.454Z,0.60
2022-08-12T13:14:46.230Z,0.55
2022-08-12T13:15:50.659Z,0.57
2022-08-12T13:16:54.133Z,0.60
2022-08-12T13:18:18.227Z,0.30
2022-08-12T13:19:37.530Z,0.35
2022-08-12T13:20:47.006Z,0.45
2022-08-12T13:22:04.637Z,0.65
2022-08-12T13:23:35.958Z,0.40
2022-08-12T13:24:40.278Z,0.40
2022-08-12T13:25:43.801Z,0.65
2022-08-12T13:26:46.314Z,0.77
2022-08-12T13:27:50.223Z,0.40
2022-08-12T13:28:55.919Z,0.55
2022-08-12T13:30:06.812Z,0.20
2022-08-12T13:31:16.368Z,0.30
2022-08-12T13:32:30.966Z,0.30
2022-08-12T13:34:32.419Z,0.50
2022-08-12T13:35:04.160Z,0.28
2022-08-12T13:36:18.028Z,0.40
2022-08-12T13:37:26.598Z,0.30
2022-08-12T13:38:38.703Z,0.40
2022-08-12T13:39:42.580Z,0.32
2022-08-12T13:40:52.272Z,0.50
2022-08-12T13:41:55.611Z,0.60
2022-08-12T13:43:01.986Z,0.63
2022-08-12T13:44:05.691Z,0.40
2022-08-12T13:45:09.953Z,0.50
2022-08-12T13:46:21.220Z,0.50
2022-08-12T13:47:24.979Z,0.35
2022-08-12T13:48:36.203Z,0.52
2022-08-12T13:49:55.684Z,0.50
2022-08-12T13:50:59.952Z,0.50
2022-08-12T13:52:09.211Z,0.50
2022-08-12T13:53:23.707Z,0.60
2022-08-12T13:54:32.881Z,0.35
2022-08-12T13:55:41.324Z,0.35
2022-08-12T13:56:51.588Z,0.88
2022-08-12T13:58:04.261Z,0.43
2022-08-12T13:59:16.117Z,0.50
2022-08-12T14:00:18.715Z,0.43
2022-08-12T14:01:22.813Z,0.35
2022-08-12T14:02:25.395Z,0.32
2022-08-12T14:03:51.494Z,0.65
2022-08-12T14:04:56.153Z,0.70
2022-08-12T14:05:59.618Z,0.47
2022-08-12T14:07:05.664Z,0.43
2022-08-12T14:08:21.306Z,0.70
2022-08-12T14:09:31.244Z,0.57
2022-08-12T14:10:50.820Z,0.75
2022-08-12T14:11:59.600Z,0.40
2022-08-12T14:13:10.497Z,0.50
2022-08-12T14:14:20.704Z,0.40
2022-08-12T14:15:37.095Z,0.50
2022-08-12T14:16:48.296Z,0.40
2022-08-12T14:18:13.336Z,0.63
2022-08-12T14:19:35.967Z,0.65
2022-08-12T14:20:41.151Z,0.65
2022-08-12T14:22:00.792Z,0.47
2022-08-12T14:24:01.152Z,0.40
2022-08-12T14:24:43.233Z,0.30
2022-08-12T14:25:48.686Z,0.30
2022-08-12T14:26:54.502Z,0.38
2022-08-12T14:28:06.756Z,0.50
2022-08-12T14:29:21.598Z,0.50
2022-08-12T14:30:39.252Z,0.40
2022-08-12T14:32:02.645Z,0.70
2022-08-12T14:33:09.097Z,0.45
2022-08-12T14:34:14.572Z,0.20
2022-08-12T14:35:26.233Z,0.30
2022-08-12T14:36:29.733Z,0.68
2022-08-12T14:37:57.245Z,0.45
2022-08-12T14:38:56.374Z,0.50
2022-08-12T14:40:07.293Z,0.50
2022-08-12T14:41:13.208Z,0.32
2022-08-12T14:42:17.681Z,0.40
2022-08-12T14:43:22.984Z,0.68
2022-08-12T14:44:59.524Z,0.40
2022-08-12T14:46:05.309Z,0.63
2022-08-12T14:47:11.014Z,0.45
2022-08-12T14:48:15.473Z,0.40
2022-08-12T14:49:43.607Z,0.40
2022-08-12T14:51:02.603Z,0.40
2022-08-12T14:52:55.673Z,0.50
2022-08-12T14:56:59.254Z,0.40
2022-08-12T14:57:56.544Z,0.38
2022-08-12T14:59:20.289Z,0.50
2022-08-12T15:00:50.795Z,0.85
2022-08-12T15:02:03.363Z,0.32
2022-08-12T15:03:06.441Z,0.50
2022-08-12T15:04:10.983Z,0.50
2022-08-12T15:06:06.636Z,0.60
2022-08-12T15:06:43.555Z,0.90
2022-08-12T15:08:01.793Z,0.25
2022-08-12T15:09:09.243Z,0.40
2022-08-12T15:10:14.867Z,0.38
2022-08-12T15:11:54.739Z,0.32
2022-08-12T15:12:59.284Z,0.30
2022-08-12T15:14:02.845Z,0.30
2022-08-12T15:15:09.146Z,0.60
2022-08-12T15:16:18.939Z,0.70
2022-08-12T15:17:42.266Z,0.40
2022-08-12T15:18:56.173Z,0.40
2022-08-12T15:20:31.221Z,0.60
2022-08-12T15:21:25.734Z,0.60
2022-08-12T15:22:54.097Z,0.35
2022-08-12T15:24:04.296Z,0.40
2022-08-12T15:25:10.173Z,0.40
2022-08-12T15:26:27.370Z,0.30
2022-08-12T15:28:05.528Z,0.38
2022-08-12T15:29:03.273Z,0.52
2022-08-12T15:30:09.409Z,0.50
2022-08-12T15:31:27.918Z,0.57
2022-08-12T15:32:37.490Z,0.28
2022-08-12T15:33:51.369Z,0.55
2022-08-12T15:34:55.442Z,0.57
2022-08-12T15:35:58.960Z,0.45
2022-08-12T15:37:05.350Z,0.30
2022-08-12T15:38:18.645Z,0.57
2022-08-12T15:39:29.039Z,0.30
2022-08-12T15:40:33.380Z,0.30
2022-08-12T15:41:50.278Z,0.40
2022-08-12T15:42:57.766Z,0.38
2022-08-12T15:44:37.098Z,0.52
2022-08-12T15:45:31.958Z,0.60
2022-08-12T15:46:36.963Z,0.40
2022-08-12T15:47:49.902Z,0.52
2022-08-12T15:48:54.451Z,0.32
2022-08-12T15:50:01.490Z,0.47
2022-08-12T15:51:12.245Z,0.50
2022-08-12T15:52:31.256Z,0.70
2022-08-12T15:53:54.820Z,0.50
2022-08-12T15:55:06.228Z,0.50
2022-08-12T15:56:16.465Z,0.45
2022-08-12T15:57:22.084Z,0.60
2022-08-12T15:58:33.850Z,0.47
2022-08-12T16:00:03.999Z,0.60
2022-08-12T16:01:01.786Z,0.60
2022-08-12T16:02:09.476Z,0.60
2022-08-12T16:03:25.802Z,0.40
2022-08-12T16:04:28.463Z,0.50
2022-08-12T16:06:11.749Z,0.57
2022-08-12T16:07:05.615Z,0.55
2022-08-12T16:08:27.195Z,0.40
2022-08-12T16:09:55.901Z,0.30
2022-08-12T16:10:54.130Z,0.40
2022-08-12T16:11:57.101Z,0.60
2022-08-12T16:13:13.247Z,0.70
2022-08-12T16:14:23.318Z,0.70
2022-08-12T16:15:29.591Z,0.70
2022-08-12T16:16:38.063Z,0.40
2022-08-12T16:18:18.578Z,0.50
2022-08-12T16:20:04.309Z,0.60
2022-08-12T16:21:00.303Z,0.43
2022-08-12T16:22:02.828Z,0.60